AirNav   TITAN Aviation Fuels
 
 591 users online  

3NJ1 Pemberton Airport
Pemberton, New Jersey, USA

GOING TO PEMBERTON?


FAA INFORMATION EFFECTIVE 26 JANUARY 2023

Location

FAA Identifier: 3NJ1
Lat/Long: 39-58-55.8400N 074-41-41.9100W
39-58.930667N 074-41.698500W
39.9821778,-74.6949750
(estimated)
Elevation: 65 ft. / 20 m (estimated)
Variation: 12W (1985)
From city: 1 mile NW of PEMBERTON, NJ
Time zone: UTC -5 (UTC -4 during Daylight Saving Time)
Zip code: 08068

Airport Operations

Airport use: Private use. Permission required prior to landing
Activation date: 05/1951
Control tower: no
ARTCC: NEW YORK CENTER
FSS: MILLVILLE FLIGHT SERVICE STATION
Attendance: DAYLIGHT HOURS
Wind indicator: yes
Segmented circle: no

Airport Communications

WX ASOS at VAY (7 nm W): 119.325 (609-267-1176)
WX ASOS at PNE (16 nm W): PHONE 215-677-0146
WX ASOS at TTN (18 nm N): 126.775 (609-538-8690)
WX AWOS-3PT at MJX (19 nm E): 119.875 (732-797-2542)
WX AWOS-AV at N81 (19 nm S): 122.7

Nearby radio navigation aids

VOR radial/distance  VOR name  Freq  Var
GXUr262/4.8MC GUIRE VORTAC110.6012W
CYNr319/15.6COYLE VORTAC113.4010W
RBVr225/16.1ROBBINSVILLE VORTAC113.8010W
ARDr159/19.0YARDLEY VOR/DME108.2010W
VCNr035/29.5CEDAR LAKE VOR/DME115.2010W
COLr242/31.5COLTS NECK VOR/DME115.4011W
ACYr000/32.0ATLANTIC CITY VORTAC108.6010W
OODr063/34.9WOODSTOWN VORTAC112.8010W
SBJr187/36.1SOLBERG VOR/DME112.9010W

 
NDB name  Hdg/Dist  Freq  Var  ID
LAKEHURST268/16.939611WNEL -. . .-..
RAINBOW042/39.536311WRNB .-. -. -...

Airport Services

Parking: tiedowns
Airframe service: MAJOR
Powerplant service: MAJOR

Runway Information

Runway 4/22

Dimensions: 2568 x 100 ft. / 783 x 30 m
Surface: turf, in fair condition
Runway edge markings: YELLOW BUCKETS MARK RY ENDS AND EDGES.
RUNWAY 4  RUNWAY 22
Traffic pattern: leftleft
Obstructions: 60 ft. tree, 5 ft. from runway, 90 ft. right of centerline68 ft. tree, 140 ft. from runway, 102 ft. right of centerline, 2:1 slope to clear

Airport Ownership and Management from official FAA records

Ownership: Privately-owned
Owner: METRO AIRWAYS INC
227 PENN-LAWR
PENNINGTON, NJ 08524
Phone 609-575-7284
Manager: FRANK VITELLARO
227 PENN-LAWR
PENNINGTON, NJ 08868
Phone 609-575-7284

Airport Operational Statistics

Aircraft based on the field: 24
Single engine airplanes: 12
Ultralights: 12
    
Aircraft operations: avg 33/day *
92% local general aviation
8% transient general aviation
* for 12-month period ending 02 June 1998

Additional Remarks

TREES EACH END RWY 04/22.
ULTRALGT ACTIVITY ON AND INVOF ARPT.
FOR CD CTC MC GUIRE APCH AT 609-754-2767.

Instrument Procedures

There are no published instrument procedures at 3NJ1.

Some nearby airports with instrument procedures:

KWRI - McGuire Field (Joint Base Mc Guire Dix Lakehurst) Airport (5 nm NE)
N14 - Flying W Airport (6 nm SW)
KVAY - South Jersey Regional Airport (7 nm W)
N87 - Trenton-Robbinsville Airport (15 nm N)
KPNE - Northeast Philadelphia Airport (16 nm NW)
KNEL - Lakehurst Maxfield Field Airport (16 nm E)
19N - Camden County Airport (17 nm SW)
KTTN - Trenton Mercer Airport (18 nm N)
KMJX - Ocean County Airport (19 nm E)
N81 - Hammonton Municipal Airport (19 nm S)
 
Loc | Ops | Rwys | IFR | FBO | Links
Com | Nav | Svcs | Stats | Notes
Area around 3NJ1 (Pemberton Airport)
 
Road maps at: MapQuest Bing Google
 
Aerial photo
WARNING: Photo may not be current or correct
Aerial photo of 3NJ1 (Pemberton Airport)
Photo by Scott Krzysik
Photo taken 26-May-2010

Do you have a better or more recent aerial photo of Pemberton Airport that you would like to share? If so, please send us your photo.

 
Sectional chart

 
Airport distance calculator
Flying to Pemberton Airport? Find the distance to fly.

From to 3NJ1

Sunrise and sunset
Times for 30-Jan-2023
 Local
(UTC-5)
 Zulu
(UTC)
Morning civil twilight06:4111:41
Sunrise07:1012:10
Sunset17:1422:14
Evening civil twilight17:4322:43

Current date and time
Zulu (UTC)  30-Jan-2023 09:43:01
Local (UTC-5)  30-Jan-2023 04:43:01
 
METAR
KWRI 
6nm E 
300855Z AUTO 14003KT 10SM CLR 03/03 A3016 RMK AO2 SLP214 T00270026 55007 $
KVAY 
7nm SW 
ASOS 119.325 609-267-1176
300854Z AUTO 00000KT 8SM CLR 04/02 A3016 RMK AO2 SLP212 T00390022 57009 $
KPNE 
16nm W 
300854Z AUTO 00000KT 10SM CLR 03/01 A3017 RMK AO2 SLP217 T00330011 58006
KNEL 
17nm E 
300800Z AUTO 00000KT CLR 03/02 A3015 RMK AO2 SLP209 T00330022 $
KMJX 
19nm E 
AWOS-3 119.875 732-244-4450
201556Z AUTO 28016G22KT 10SM BKN045 09/02 A2970 RMK AO2 SLP062 T00940017 TSNO
KTTN 
19nm N 
ASOS 133.70 609-538-8690
300853Z AUTO 00000KT 10SM CLR 03/01 A3015 RMK AO2 SLP206 T00280011 55004
TAF
KWRI 
6nm E 
300200Z 3002/3108 VRB05KT 9999 BKN045 BKN075 QNH3014INS BECMG 3003/3004 VRB05KT 9999 BKN015 BKN030 QNH3017INS BECMG 3009/3010 VRB05KT 9999 SCT015 BKN030 QNH3010INS BECMG 3014/3015 25007KT 9999 SCT035 QNH3011INS BECMG 3022/3023 25009KT 9999 BKN025 BKN060 QNH3011INS TX11/3020Z TN02/3011Z
KPNE 
16nm W 
300523Z 3006/3106 23004KT P6SM BKN250 FM301200 20005KT P6SM BKN080 FM301800 22005KT P6SM SCT080
KTTN 
19nm N 
291722Z 2918/3018 21008G16KT P6SM OVC100 FM292200 22008KT P6SM OVC045 FM300100 VRB03KT P6SM OVC025 FM300800 VRB03KT P6SM BKN040 FM301600 22006KT P6SM BKN040
NOTAMs
Click for the latest NOTAMs
NOTAMs are issued by the DoD/FAA and will open in a separate window not controlled by AirNav.

 

 
 

Would you like to see your business listed on this page?

 If your business provides an interesting product or service to pilots, flight crews, aircraft, or users of the Pemberton Airport, you should consider listing it here.  To start the listing process, click on the button below
 
Add a business
 

Other Pages about Pemberton Airport

Update a link
 
Copyright © AirNav, LLC. All rights reserved. Privacy Policy  Contact